sensor_id;sensor_type;location;lat;lon;timestamp;pressure;altitude;pressure_sealevel;temperature;humidity
19510;BME280;9896;42.486;26.506;2023-03-01T00:01:52;100610.47;;;4.78;100.00
19510;BME280;9896;42.486;26.506;2023-03-01T00:04:18;100609.75;;;4.68;100.00
19510;BME280;9896;42.486;26.506;2023-03-01T00:06:44;100628.25;;;4.78;100.00
19510;BME280;9896;42.486;26.506;2023-03-01T00:09:14;100626.59;;;4.77;100.00
19510;BME280;9896;42.486;26.506;2023-03-01T00:11:39;100622.41;;;4.74;100.00
19510;BME280;9896;42.486;26.506;2023-03-01T00:14:05;100625.75;;;4.76;100.00
19510;BME280;9896;42.486;26.506;2023-03-01T00:16:34;100642.59;;;4.85;100.00
19510;BME280;9896;42.486;26.506;2023-03-01T00:19:00;100648.38;;;4.80;100.00
19510;BME280;9896;42.486;26.506;2023-03-01T00:21:27;100647.44;;;4.72;100.00
19510;BME280;9896;42.486;26.506;2023-03-01T00:23:53;100639.41;;;4.63;100.00
19510;BME280;9896;42.486;26.506;2023-03-01T00:26:20;100654.06;;;4.67;100.00
19510;BME280;9896;42.486;26.506;2023-03-01T00:28:46;100652.75;;;4.89;100.00
19510;BME280;9896;42.486;26.506;2023-03-01T00:31:15;100649.22;;;4.81;100.00
19510;BME280;9896;42.486;26.506;2023-03-01T00:33:41;100645.53;;;4.82;100.00
19510;BME280;9896;42.486;26.506;2023-03-01T00:36:07;100634.00;;;4.73;100.00
19510;BME280;9896;42.486;26.506;2023-03-01T00:38:41;100648.44;;;4.71;100.00
19510;BME280;9896;42.486;26.506;2023-03-01T00:41:13;100637.06;;;4.60;100.00
19510;BME280;9896;42.486;26.506;2023-03-01T00:43:40;100647.44;;;4.72;100.00
19510;BME280;9896;42.486;26.506;2023-03-01T00:46:08;100647.00;;;4.76;100.00
19510;BME280;9896;42.486;26.506;2023-03-01T00:48:34;100653.22;;;4.67;100.00
19510;BME280;9896;42.486;26.506;2023-03-01T00:51:08;100642.38;;;4.60;100.00
19510;BME280;9896;42.486;26.506;2023-03-01T00:53:35;100648.19;;;4.82;100.00
19510;BME280;9896;42.486;26.506;2023-03-01T00:56:05;100658.06;;;4.89;100.00
19510;BME280;9896;42.486;26.506;2023-03-01T00:58:31;100648.44;;;4.88;100.00
19510;BME280;9896;42.486;26.506;2023-03-01T01:00:57;100651.31;;;4.95;100.00
19510;BME280;9896;42.486;26.506;2023-03-01T01:03:23;100656.06;;;5.01;100.00
19510;BME280;9896;42.486;26.506;2023-03-01T01:05:51;100647.44;;;4.89;100.00
19510;BME280;9896;42.486;26.506;2023-03-01T01:08:17;100635.94;;;4.81;100.00
19510;BME280;9896;42.486;26.506;2023-03-01T01:10:44;100620.78;;;4.81;100.00
19510;BME280;9896;42.486;26.506;2023-03-01T01:13:10;100617.25;;;4.90;100.00
19510;BME280;9896;42.486;26.506;2023-03-01T01:15:36;100620.53;;;4.84;100.00
19510;BME280;9896;42.486;26.506;2023-03-01T01:18:01;100620.34;;;4.86;100.00
19510;BME280;9896;42.486;26.506;2023-03-01T01:20:27;100618.69;;;4.85;100.00
19510;BME280;9896;42.486;26.506;2023-03-01T01:22:53;100610.03;;;4.83;100.00
19510;BME280;9896;42.486;26.506;2023-03-01T01:25:19;100603.13;;;4.72;100.00
19510;BME280;9896;42.486;26.506;2023-03-01T01:27:44;100602.13;;;4.73;100.00
19510;BME280;9896;42.486;26.506;2023-03-01T01:30:10;100617.16;;;5.00;100.00
19510;BME280;9896;42.486;26.506;2023-03-01T01:32:36;100626.13;;;4.99;100.00
19510;BME280;9896;42.486;26.506;2023-03-01T01:35:02;100623.53;;;5.07;100.00
19510;BME280;9896;42.486;26.506;2023-03-01T01:37:27;100618.53;;;5.04;100.00
19510;BME280;9896;42.486;26.506;2023-03-01T01:40:00;100616.31;;;4.99;100.00
19510;BME280;9896;42.486;26.506;2023-03-01T01:42:26;100618.84;;;5.01;100.00
19510;BME280;9896;42.486;26.506;2023-03-01T01:45:27;100624.31;;;4.99;100.00
19510;BME280;9896;42.486;26.506;2023-03-01T01:47:56;100620.28;;;4.95;100.00
19510;BME280;9896;42.486;26.506;2023-03-01T01:50:23;100622.63;;;4.98;100.00
19510;BME280;9896;42.486;26.506;2023-03-01T01:52:50;100612.38;;;5.03;100.00
19510;BME280;9896;42.486;26.506;2023-03-01T01:55:24;100600.69;;;4.96;100.00
19510;BME280;9896;42.486;26.506;2023-03-01T01:58:01;100603.69;;;5.01;100.00
19510;BME280;9896;42.486;26.506;2023-03-01T02:00:29;100603.75;;;4.84;100.00
19510;BME280;9896;42.486;26.506;2023-03-01T02:03:01;100598.94;;;4.87;100.00
19510;BME280;9896;42.486;26.506;2023-03-01T02:08:14;100593.41;;;4.81;100.00
19510;BME280;9896;42.486;26.506;2023-03-01T02:10:41;100584.44;;;4.82;100.00
19510;BME280;9896;42.486;26.506;2023-03-01T02:13:08;100584.97;;;4.85;100.00
19510;BME280;9896;42.486;26.506;2023-03-01T02:15:36;100577.56;;;4.89;100.00
19510;BME280;9896;42.486;26.506;2023-03-01T02:18:03;100576.53;;;4.90;100.00
19510;BME280;9896;42.486;26.506;2023-03-01T02:20:48;100570.63;;;4.96;100.00
19510;BME280;9896;42.486;26.506;2023-03-01T02:23:17;100570.69;;;5.04;100.00
19510;BME280;9896;42.486;26.506;2023-03-01T02:26:00;100578.44;;;4.97;100.00
19510;BME280;9896;42.486;26.506;2023-03-01T02:28:35;100588.25;;;4.97;100.00
19510;BME280;9896;42.486;26.506;2023-03-01T02:31:01;100591.94;;;5.04;100.00
19510;BME280;9896;42.486;26.506;2023-03-01T02:33:47;100588.53;;;5.11;100.00
19510;BME280;9896;42.486;26.506;2023-03-01T02:36:36;100588.13;;;5.06;100.00
19510;BME280;9896;42.486;26.506;2023-03-01T02:39:05;100585.72;;;5.13;100.00
19510;BME280;9896;42.486;26.506;2023-03-01T02:41:35;100571.34;;;5.06;100.00
19510;BME280;9896;42.486;26.506;2023-03-01T02:44:01;100568.81;;;4.96;100.00
19510;BME280;9896;42.486;26.506;2023-03-01T02:46:27;100586.56;;;4.96;100.00
19510;BME280;9896;42.486;26.506;2023-03-01T02:48:57;100584.97;;;5.03;100.00
19510;BME280;9896;42.486;26.506;2023-03-01T02:51:52;100577.13;;;5.01;100.00
19510;BME280;9896;42.486;26.506;2023-03-01T02:54:38;100583.59;;;4.99;100.00
19510;BME280;9896;42.486;26.506;2023-03-01T02:57:05;100576.84;;;5.04;100.00
19510;BME280;9896;42.486;26.506;2023-03-01T02:59:33;100577.31;;;5.00;100.00
19510;BME280;9896;42.486;26.506;2023-03-01T03:02:06;100588.78;;;5.00;100.00
19510;BME280;9896;42.486;26.506;2023-03-01T03:04:31;100588.25;;;4.97;100.00
19510;BME280;9896;42.486;26.506;2023-03-01T03:06:57;100593.06;;;5.01;100.00
19510;BME280;9896;42.486;26.506;2023-03-01T03:09:23;100591.13;;;5.03;100.00
19510;BME280;9896;42.486;26.506;2023-03-01T03:11:48;100596.44;;;5.03;100.00
19510;BME280;9896;42.486;26.506;2023-03-01T03:14:16;100569.66;;;4.97;100.00
19510;BME280;9896;42.486;26.506;2023-03-01T03:16:44;100587.16;;;5.07;100.00
19510;BME280;9896;42.486;26.506;2023-03-01T03:19:11;100579.50;;;4.87;100.00
19510;BME280;9896;42.486;26.506;2023-03-01T03:21:37;100580.88;;;4.91;100.00
19510;BME280;9896;42.486;26.506;2023-03-01T03:24:03;100584.75;;;4.96;100.00
19510;BME280;9896;42.486;26.506;2023-03-01T03:26:28;100584.38;;;4.91;100.00
19510;BME280;9896;42.486;26.506;2023-03-01T03:28:54;100584.69;;;4.88;100.00
19510;BME280;9896;42.486;26.506;2023-03-01T03:31:20;100590.22;;;4.95;100.00
19510;BME280;9896;42.486;26.506;2023-03-01T03:33:46;100576.47;;;4.99;100.00
19510;BME280;9896;42.486;26.506;2023-03-01T03:36:20;100579.44;;;4.96;100.00
19510;BME280;9896;42.486;26.506;2023-03-01T03:38:47;100570.63;;;4.96;100.00
19510;BME280;9896;42.486;26.506;2023-03-01T03:41:12;100574.72;;;4.90;100.00
19510;BME280;9896;42.486;26.506;2023-03-01T03:43:57;100582.56;;;4.92;100.00
19510;BME280;9896;42.486;26.506;2023-03-01T03:46:22;100573.47;;;4.77;100.00
19510;BME280;9896;42.486;26.506;2023-03-01T03:48:48;100581.81;;;4.64;100.00
19510;BME280;9896;42.486;26.506;2023-03-01T03:51:16;100578.84;;;4.67;100.00
19510;BME280;9896;42.486;26.506;2023-03-01T03:53:42;100573.91;;;4.72;100.00
19510;BME280;9896;42.486;26.506;2023-03-01T03:56:08;100577.75;;;4.78;100.00
19510;BME280;9896;42.486;26.506;2023-03-01T03:58:34;100568.34;;;4.65;100.00
19510;BME280;9896;42.486;26.506;2023-03-01T04:01:00;100576.56;;;4.54;100.00
19510;BME280;9896;42.486;26.506;2023-03-01T04:03:26;100561.31;;;4.56;100.00
19510;BME280;9896;42.486;26.506;2023-03-01T04:05:52;100556.84;;;4.39;100.00
19510;BME280;9896;42.486;26.506;2023-03-01T04:08:23;100562.75;;;4.51;100.00
19510;BME280;9896;42.486;26.506;2023-03-01T04:10:51;100570.78;;;4.59;100.00
19510;BME280;9896;42.486;26.506;2023-03-01T04:13:19;100557.28;;;4.52;100.00
19510;BME280;9896;42.486;26.506;2023-03-01T04:15:46;100553.50;;;4.55;100.00
19510;BME280;9896;42.486;26.506;2023-03-01T04:18:15;100567.66;;;4.46;100.00
19510;BME280;9896;42.486;26.506;2023-03-01T04:20:41;100546.91;;;4.59;100.00
19510;BME280;9896;42.486;26.506;2023-03-01T04:23:10;100555.75;;;4.50;100.00
19510;BME280;9896;42.486;26.506;2023-03-01T04:25:54;100550.97;;;4.53;100.00
19510;BME280;9896;42.486;26.506;2023-03-01T04:28:36;100534.75;;;4.39;100.00
19510;BME280;9896;42.486;26.506;2023-03-01T04:31:22;100547.59;;;4.43;100.00
19510;BME280;9896;42.486;26.506;2023-03-01T04:33:51;100552.28;;;4.32;100.00
19510;BME280;9896;42.486;26.506;2023-03-01T04:36:19;100558.47;;;4.40;100.00
19510;BME280;9896;42.486;26.506;2023-03-01T04:38:45;100551.28;;;4.50;100.00
19510;BME280;9896;42.486;26.506;2023-03-01T04:41:15;100539.31;;;4.46;100.00
19510;BME280;9896;42.486;26.506;2023-03-01T04:43:40;100543.00;;;4.53;100.00
19510;BME280;9896;42.486;26.506;2023-03-01T04:46:08;100541.34;;;4.52;100.00
19510;BME280;9896;42.486;26.506;2023-03-01T04:48:36;100541.50;;;4.51;100.00
19510;BME280;9896;42.486;26.506;2023-03-01T04:51:03;100549.16;;;4.54;100.00
19510;BME280;9896;42.486;26.506;2023-03-01T04:53:28;100547.50;;;4.53;100.00
19510;BME280;9896;42.486;26.506;2023-03-01T04:55:56;100549.78;;;4.48;100.00
19510;BME280;9896;42.486;26.506;2023-03-01T04:58:26;100555.38;;;4.45;100.00
19510;BME280;9896;42.486;26.506;2023-03-01T05:00:52;100545.22;;;4.40;100.00
19510;BME280;9896;42.486;26.506;2023-03-01T05:03:18;100544.84;;;4.53;100.00
19510;BME280;9896;42.486;26.506;2023-03-01T05:05:46;100550.00;;;4.54;100.00
19510;BME280;9896;42.486;26.506;2023-03-01T05:08:13;100546.81;;;4.51;100.00
19510;BME280;9896;42.486;26.506;2023-03-01T05:10:52;100558.28;;;4.51;100.00
19510;BME280;9896;42.486;26.506;2023-03-01T05:13:20;100559.25;;;4.50;100.00
19510;BME280;9896;42.486;26.506;2023-03-01T05:15:58;100549.94;;;4.64;100.00
19510;BME280;9896;42.486;26.506;2023-03-01T05:18:24;100547.94;;;4.48;100.00
19510;BME280;9896;42.486;26.506;2023-03-01T05:21:02;100559.34;;;4.58;100.00
19510;BME280;9896;42.486;26.506;2023-03-01T05:23:30;100549.31;;;4.52;100.00
19510;BME280;9896;42.486;26.506;2023-03-01T05:25:58;100556.53;;;4.60;100.00
19510;BME280;9896;42.486;26.506;2023-03-01T05:28:25;100562.50;;;4.62;100.00
19510;BME280;9896;42.486;26.506;2023-03-01T05:30:51;100558.81;;;4.73;100.00
19510;BME280;9896;42.486;26.506;2023-03-01T05:33:18;100566.22;;;4.69;100.00
19510;BME280;9896;42.486;26.506;2023-03-01T05:35:45;100564.88;;;4.65;100.00
19510;BME280;9896;42.486;26.506;2023-03-01T05:38:14;100563.81;;;4.76;100.00
19510;BME280;9896;42.486;26.506;2023-03-01T05:40:44;100569.06;;;4.67;100.00
19510;BME280;9896;42.486;26.506;2023-03-01T05:43:12;100577.09;;;4.76;100.00
19510;BME280;9896;42.486;26.506;2023-03-01T05:45:38;100557.72;;;4.83;100.00
19510;BME280;9896;42.486;26.506;2023-03-01T05:48:05;100568.97;;;4.77;100.00
19510;BME280;9896;42.486;26.506;2023-03-01T05:50:34;100566.94;;;4.71;100.00
19510;BME280;9896;42.486;26.506;2023-03-01T05:55:29;100551.56;;;4.83;100.00
19510;BME280;9896;42.486;26.506;2023-03-01T05:57:58;100564.00;;;5.00;100.00
19510;BME280;9896;42.486;26.506;2023-03-01T06:00:24;100559.16;;;4.95;100.00
19510;BME280;9896;42.486;26.506;2023-03-01T06:02:50;100577.69;;;4.87;100.00
19510;BME280;9896;42.486;26.506;2023-03-01T06:05:17;100567.72;;;4.89;100.00
19510;BME280;9896;42.486;26.506;2023-03-01T06:07:43;100563.44;;;4.88;100.00
19510;BME280;9896;42.486;26.506;2023-03-01T06:10:10;100569.66;;;4.97;100.00
19510;BME280;9896;42.486;26.506;2023-03-01T06:12:37;100566.50;;;5.01;100.00
19510;BME280;9896;42.486;26.506;2023-03-01T06:15:04;100570.31;;;4.99;100.00
19510;BME280;9896;42.486;26.506;2023-03-01T06:17:32;100569.47;;;4.98;100.00
19510;BME280;9896;42.486;26.506;2023-03-01T06:20:05;100576.97;;;5.03;100.00
19510;BME280;9896;42.486;26.506;2023-03-01T06:22:31;100567.78;;;4.97;100.00
19510;BME280;9896;42.486;26.506;2023-03-01T06:24:56;100569.47;;;4.98;100.00
19510;BME280;9896;42.486;26.506;2023-03-01T06:27:22;100575.81;;;5.05;100.00
19510;BME280;9896;42.486;26.506;2023-03-01T06:29:47;100578.25;;;5.17;100.00
19510;BME280;9896;42.486;26.506;2023-03-01T06:32:14;100557.28;;;5.13;100.00
19510;BME280;9896;42.486;26.506;2023-03-01T06:34:39;100571.97;;;5.18;100.00
19510;BME280;9896;42.486;26.506;2023-03-01T06:37:06;100573.28;;;4.96;100.00
19510;BME280;9896;42.486;26.506;2023-03-01T06:39:32;100567.19;;;5.03;100.00
19510;BME280;9896;42.486;26.506;2023-03-01T06:41:58;100571.13;;;5.17;100.00
19510;BME280;9896;42.486;26.506;2023-03-01T06:44:23;100575.97;;;5.22;100.00
19510;BME280;9896;42.486;26.506;2023-03-01T06:46:49;100578.41;;;5.15;100.00
19510;BME280;9896;42.486;26.506;2023-03-01T06:49:15;100575.16;;;5.21;100.00
19510;BME280;9896;42.486;26.506;2023-03-01T06:51:41;100583.34;;;5.10;100.00
19510;BME280;9896;42.486;26.506;2023-03-01T06:54:07;100565.63;;;5.19;100.00
19510;BME280;9896;42.486;26.506;2023-03-01T06:56:33;100573.22;;;5.13;100.00
19510;BME280;9896;42.486;26.506;2023-03-01T06:58:59;100571.59;;;5.12;100.00
19510;BME280;9896;42.486;26.506;2023-03-01T07:01:25;100567.31;;;5.20;100.00
19510;BME280;9896;42.486;26.506;2023-03-01T07:03:50;100570.03;;;5.28;100.00
19510;BME280;9896;42.486;26.506;2023-03-01T07:06:16;100552.81;;;5.14;100.00
19510;BME280;9896;42.486;26.506;2023-03-01T07:08:43;100571.47;;;5.22;100.00
19510;BME280;9896;42.486;26.506;2023-03-01T07:11:08;100562.56;;;5.31;100.00
19510;BME280;9896;42.486;26.506;2023-03-01T07:13:34;100574.19;;;5.30;100.00
19510;BME280;9896;42.486;26.506;2023-03-01T07:16:00;100576.22;;;5.36;100.00
19510;BME280;9896;42.486;26.506;2023-03-01T07:18:25;100571.91;;;5.35;100.00
19510;BME280;9896;42.486;26.506;2023-03-01T07:20:51;100579.03;;;5.35;100.00
19510;BME280;9896;42.486;26.506;2023-03-01T07:23:17;100578.25;;;5.42;100.00
19510;BME280;9896;42.486;26.506;2023-03-01T07:25:42;100584.06;;;5.38;100.00
19510;BME280;9896;42.486;26.506;2023-03-01T07:28:08;100576.59;;;5.41;100.00
19510;BME280;9896;42.486;26.506;2023-03-01T07:30:33;100581.94;;;5.41;100.00
19510;BME280;9896;42.486;26.506;2023-03-01T07:32:59;100572.84;;;5.52;100.00
19510;BME280;9896;42.486;26.506;2023-03-01T07:35:26;100585.19;;;5.61;100.00
19510;BME280;9896;42.486;26.506;2023-03-01T07:37:52;100584.03;;;5.63;100.00
19510;BME280;9896;42.486;26.506;2023-03-01T07:40:17;100565.94;;;5.67;100.00
19510;BME280;9896;42.486;26.506;2023-03-01T07:42:43;100574.13;;;5.74;100.00
19510;BME280;9896;42.486;26.506;2023-03-01T07:45:09;100584.50;;;5.59;100.00
19510;BME280;9896;42.486;26.506;2023-03-01T07:47:35;100573.63;;;5.70;100.00
19510;BME280;9896;42.486;26.506;2023-03-01T07:50:01;100577.91;;;5.71;100.00
19510;BME280;9896;42.486;26.506;2023-03-01T07:52:28;100574.56;;;5.61;100.00
19510;BME280;9896;42.486;26.506;2023-03-01T07:54:53;100589.34;;;5.63;100.00
19510;BME280;9896;42.486;26.506;2023-03-01T07:57:19;100591.97;;;5.55;100.00
19510;BME280;9896;42.486;26.506;2023-03-01T07:59:45;100584.09;;;5.72;100.00
19510;BME280;9896;42.486;26.506;2023-03-01T08:02:11;100575.78;;;5.75;100.00
19510;BME280;9896;42.486;26.506;2023-03-01T08:04:36;100581.22;;;5.65;100.00
19510;BME280;9896;42.486;26.506;2023-03-01T08:07:05;100580.47;;;5.81;100.00
19510;BME280;9896;42.486;26.506;2023-03-01T08:09:31;100584.09;;;5.72;100.00
19510;BME280;9896;42.486;26.506;2023-03-01T08:11:57;100584.97;;;5.80;100.00
19510;BME280;9896;42.486;26.506;2023-03-01T08:14:25;100582.78;;;5.76;100.00
19510;BME280;9896;42.486;26.506;2023-03-01T08:16:50;100580.16;;;5.84;100.00
19510;BME280;9896;42.486;26.506;2023-03-01T08:19:17;100580.63;;;5.79;100.00
19510;BME280;9896;42.486;26.506;2023-03-01T08:21:43;100577.13;;;5.79;100.00
19510;BME280;9896;42.486;26.506;2023-03-01T08:24:08;100588.88;;;5.68;100.00
19510;BME280;9896;42.486;26.506;2023-03-01T08:26:36;100582.41;;;5.71;100.00
19510;BME280;9896;42.486;26.506;2023-03-01T08:29:02;100586.13;;;5.78;100.00
19510;BME280;9896;42.486;26.506;2023-03-01T08:31:34;100574.06;;;5.91;100.00
19510;BME280;9896;42.486;26.506;2023-03-01T08:34:08;100575.84;;;5.83;100.00
19510;BME280;9896;42.486;26.506;2023-03-01T08:36:38;100575.41;;;5.95;100.00
19510;BME280;9896;42.486;26.506;2023-03-01T08:39:04;100583.88;;;5.65;100.00
19510;BME280;9896;42.486;26.506;2023-03-01T08:41:30;100568.53;;;5.85;100.00
19510;BME280;9896;42.486;26.506;2023-03-01T08:43:56;100568.91;;;5.90;100.00
19510;BME280;9896;42.486;26.506;2023-03-01T08:46:38;100575.22;;;5.89;100.00
19510;BME280;9896;42.486;26.506;2023-03-01T08:49:05;100575.00;;;5.82;100.00
19510;BME280;9896;42.486;26.506;2023-03-01T08:51:31;100579.44;;;5.74;100.00
19510;BME280;9896;42.486;26.506;2023-03-01T08:54:03;100572.13;;;5.76;100.00
19510;BME280;9896;42.486;26.506;2023-03-01T08:56:28;100584.31;;;5.78;100.00
19510;BME280;9896;42.486;26.506;2023-03-01T08:58:54;100576.38;;;5.86;100.00
19510;BME280;9896;42.486;26.506;2023-03-01T09:01:20;100579.59;;;5.72;100.00
19510;BME280;9896;42.486;26.506;2023-03-01T09:03:46;100575.38;;;5.87;100.00
19510;BME280;9896;42.486;26.506;2023-03-01T09:06:12;100573.41;;;5.63;100.00
19510;BME280;9896;42.486;26.506;2023-03-01T09:08:41;100569.69;;;5.82;100.00
19510;BME280;9896;42.486;26.506;2023-03-01T09:11:09;100568.44;;;5.94;100.00
19510;BME280;9896;42.486;26.506;2023-03-01T09:13:35;100569.41;;;5.93;100.00
19510;BME280;9896;42.486;26.506;2023-03-01T09:16:02;100562.34;;;5.84;100.00
19510;BME280;9896;42.486;26.506;2023-03-01T09:18:29;100567.09;;;5.65;100.00
19510;BME280;9896;42.486;26.506;2023-03-01T09:21:11;100576.31;;;5.78;100.00
19510;BME280;9896;42.486;26.506;2023-03-01T09:23:38;100580.16;;;5.84;100.00
19510;BME280;9896;42.486;26.506;2023-03-01T09:26:08;100566.63;;;5.95;100.00
19510;BME280;9896;42.486;26.506;2023-03-01T09:28:37;100565.34;;;5.81;100.00
19510;BME280;9896;42.486;26.506;2023-03-01T09:31:04;100583.25;;;5.97;100.00
19510;BME280;9896;42.486;26.506;2023-03-01T09:33:31;100578.47;;;6.08;100.00
19510;BME280;9896;42.486;26.506;2023-03-01T09:36:06;100582.91;;;6.00;100.00
19510;BME280;9896;42.486;26.506;2023-03-01T09:38:32;100572.13;;;6.01;100.00
19510;BME280;9896;42.486;26.506;2023-03-01T09:41:00;100575.59;;;5.94;100.00
19510;BME280;9896;42.486;26.506;2023-03-01T09:43:53;100554.22;;;5.86;100.00
19510;BME280;9896;42.486;26.506;2023-03-01T09:46:23;100573.56;;;5.62;100.00
19510;BME280;9896;42.486;26.506;2023-03-01T09:49:04;100572.09;;;5.68;100.00
19510;BME280;9896;42.486;26.506;2023-03-01T09:51:33;100577.97;;;5.79;100.00
19510;BME280;9896;42.486;26.506;2023-03-01T09:54:01;100573.28;;;5.99;100.00
19510;BME280;9896;42.486;26.506;2023-03-01T09:56:34;100578.81;;;6.14;100.00
19510;BME280;9896;42.486;26.506;2023-03-01T10:09:45;100572.63;;;5.79;100.00
19510;BME280;9896;42.486;26.506;2023-03-01T10:12:21;100551.91;;;5.83;100.00
19510;BME280;9896;42.486;26.506;2023-03-01T10:20:23;100564.75;;;5.61;100.00
19510;BME280;9896;42.486;26.506;2023-03-01T10:22:50;100552.53;;;5.77;100.00
19510;BME280;9896;42.486;26.506;2023-03-01T10:28:14;100556.53;;;5.81;100.00
19510;BME280;9896;42.486;26.506;2023-03-01T10:30:43;100548.47;;;5.90;100.00
19510;BME280;9896;42.486;26.506;2023-03-01T10:33:24;100549.59;;;5.88;100.00
19510;BME280;9896;42.486;26.506;2023-03-01T10:35:51;100538.34;;;5.68;100.00
19510;BME280;9896;42.486;26.506;2023-03-01T10:38:18;100528.78;;;5.49;100.00
19510;BME280;9896;42.486;26.506;2023-03-01T10:40:57;100533.09;;;5.50;100.00
19510;BME280;9896;42.486;26.506;2023-03-01T10:43:25;100540.88;;;5.44;100.00
19510;BME280;9896;42.486;26.506;2023-03-01T10:45:51;100541.19;;;5.75;100.00
19510;BME280;9896;42.486;26.506;2023-03-01T10:48:22;100527.66;;;5.60;100.00
19510;BME280;9896;42.486;26.506;2023-03-01T10:56:22;100516.91;;;5.70;100.00
19510;BME280;9896;42.486;26.506;2023-03-01T10:59:03;100518.84;;;5.93;100.00
19510;BME280;9896;42.486;26.506;2023-03-01T11:01:32;100507.63;;;5.74;100.00
19510;BME280;9896;42.486;26.506;2023-03-01T11:06:34;100517.94;;;5.77;100.00
19510;BME280;9896;42.486;26.506;2023-03-01T11:09:23;100498.72;;;5.91;100.00
19510;BME280;9896;42.486;26.506;2023-03-01T11:11:57;100511.50;;;5.87;100.00
19510;BME280;9896;42.486;26.506;2023-03-01T11:14:29;100502.94;;;5.76;100.00
19510;BME280;9896;42.486;26.506;2023-03-01T11:19:30;100493.94;;;5.69;100.00
19510;BME280;9896;42.486;26.506;2023-03-01T11:22:03;100495.38;;;5.89;100.00
19510;BME280;9896;42.486;26.506;2023-03-01T11:24:40;100493.41;;;5.91;100.00
19510;BME280;9896;42.486;26.506;2023-03-01T11:27:29;100485.31;;;5.75;100.00
19510;BME280;9896;42.486;26.506;2023-03-01T11:32:32;100476.59;;;5.90;100.00
19510;BME280;9896;42.486;26.506;2023-03-01T11:35:28;100466.13;;;5.97;100.00
19510;BME280;9896;42.486;26.506;2023-03-01T11:38:21;100467.81;;;5.98;100.00
19510;BME280;9896;42.486;26.506;2023-03-01T11:40:52;100469.28;;;6.00;100.00
19510;BME280;9896;42.486;26.506;2023-03-01T11:59:57;100461.84;;;6.20;100.00
19510;BME280;9896;42.486;26.506;2023-03-01T12:08:04;100464.63;;;5.94;100.00
19510;BME280;9896;42.486;26.506;2023-03-01T12:11:03;100457.38;;;5.79;100.00
19510;BME280;9896;42.486;26.506;2023-03-01T12:16:38;100448.31;;;5.89;100.00
19510;BME280;9896;42.486;26.506;2023-03-01T12:24:23;100455.31;;;5.90;100.00
19510;BME280;9896;42.486;26.506;2023-03-01T12:29:59;100455.81;;;5.94;100.00
19510;BME280;9896;42.486;26.506;2023-03-01T12:32:43;100461.63;;;5.89;100.00
19510;BME280;9896;42.486;26.506;2023-03-01T12:35:25;100455.84;;;6.02;100.00
19510;BME280;9896;42.486;26.506;2023-03-01T12:46:01;100452.31;;;5.93;100.00
19510;BME280;9896;42.486;26.506;2023-03-01T12:48:43;100451.25;;;5.78;100.00
19510;BME280;9896;42.486;26.506;2023-03-01T12:51:15;100447.66;;;6.03;100.00
19510;BME280;9896;42.486;26.506;2023-03-01T12:53:48;100445.69;;;6.05;100.00
19510;BME280;9896;42.486;26.506;2023-03-01T12:56:18;100451.63;;;5.91;100.00
19510;BME280;9896;42.486;26.506;2023-03-01T13:01:41;100456.28;;;5.89;100.00
19510;BME280;9896;42.486;26.506;2023-03-01T13:12:43;100457.09;;;5.82;100.00
19510;BME280;9896;42.486;26.506;2023-03-01T13:17:48;100451.81;;;5.90;100.00
19510;BME280;9896;42.486;26.506;2023-03-01T13:20:19;100456.75;;;5.85;100.00
19510;BME280;9896;42.486;26.506;2023-03-01T13:22:46;100450.56;;;5.76;100.00
19510;BME280;9896;42.486;26.506;2023-03-01T13:25:18;100444.56;;;5.66;100.00
19510;BME280;9896;42.486;26.506;2023-03-01T13:27:45;100441.13;;;5.82;100.00
19510;BME280;9896;42.486;26.506;2023-03-01T13:36:07;100447.78;;;5.86;100.00
19510;BME280;9896;42.486;26.506;2023-03-01T13:44:37;100446.53;;;5.64;100.00
19510;BME280;9896;42.486;26.506;2023-03-01T13:49:58;100448.38;;;5.63;100.00
19510;BME280;9896;42.486;26.506;2023-03-01T13:52:36;100446.22;;;5.67;100.00
19510;BME280;9896;42.486;26.506;2023-03-01T13:57:45;100436.09;;;5.79;100.00
19510;BME280;9896;42.486;26.506;2023-03-01T14:00:37;100456.88;;;5.75;100.00
19510;BME280;9896;42.486;26.506;2023-03-01T14:03:19;100444.75;;;5.73;100.00
19510;BME280;9896;42.486;26.506;2023-03-01T14:06:09;100453.22;;;5.68;100.00
19510;BME280;9896;42.486;26.506;2023-03-01T14:08:37;100460.56;;;5.82;100.00
19510;BME280;9896;42.486;26.506;2023-03-01T14:19:25;100448.66;;;5.86;100.00
19510;BME280;9896;42.486;26.506;2023-03-01T14:24:55;100436.44;;;5.76;100.00
19510;BME280;9896;42.486;26.506;2023-03-01T14:27:25;100444.56;;;5.66;100.00
19510;BME280;9896;42.486;26.506;2023-03-01T14:29:58;100455.34;;;5.56;100.00
19510;BME280;9896;42.486;26.506;2023-03-01T14:32:30;100458.50;;;5.60;100.00
19510;BME280;9896;42.486;26.506;2023-03-01T14:34:57;100449.53;;;5.61;100.00
19510;BME280;9896;42.486;26.506;2023-03-01T14:37:33;100462.31;;;5.57;100.00
19510;BME280;9896;42.486;26.506;2023-03-01T14:40:01;100447.50;;;5.55;100.00
19510;BME280;9896;42.486;26.506;2023-03-01T14:42:30;100447.66;;;5.45;100.00
19510;BME280;9896;42.486;26.506;2023-03-01T14:45:00;100444.56;;;5.66;100.00
19510;BME280;9896;42.486;26.506;2023-03-01T14:47:31;100446.50;;;5.56;100.00
19510;BME280;9896;42.486;26.506;2023-03-01T14:50:01;100442.22;;;5.63;100.00
19510;BME280;9896;42.486;26.506;2023-03-01T14:52:36;100442.50;;;5.52;100.00
19510;BME280;9896;42.486;26.506;2023-03-01T14:55:06;100441.28;;;5.38;100.00
19510;BME280;9896;42.486;26.506;2023-03-01T14:57:43;100446.63;;;5.46;100.00
19510;BME280;9896;42.486;26.506;2023-03-01T15:00:18;100442.81;;;5.41;100.00
19510;BME280;9896;42.486;26.506;2023-03-01T15:02:46;100451.63;;;5.41;100.00
19510;BME280;9896;42.486;26.506;2023-03-01T15:05:14;100453.25;;;5.42;100.00